Terminal Aerodrome Forecast
Issued by NWS Des Moines, IA

Home | Current Version | Previous Version | Text Only | Print | Product List | Glossary On
Versions: 1 2 3 4 5 6 7 8 9 10 11 12 13 14 15 16 17 18 19 20 21 22 23
000
FTUS43 KDMX 221729
TAFDSM
TAF
KDSM 221729Z 2218/2318 32007KT P6SM VCTS FEW025CB BKN150
     FM222100 35013KT P6SM SCT030 BKN250
     FM230100 01007KT P6SM SCT200=

USA.gov is the U.S. government's official web portal to all federal, state and local government web resources and services.